Time;durP1;ratioP1;P1;durP2;ratioP2;P2;SDS_P1;SDS_P2;PMS_P1;PMS_P2;Temp;Humidity;BMP_temperature;BMP_pressure;BME280_temperature;BME280_humidity;BME280_pressure;Samples;Min_cycle;Max_cycle;Signal;HPM_P1;HPM_P2
2023/03/01 00:01:27;;;;;;;21.42;14.70;;;;;;;-0.01;100.00;103304.13;4900747;29;20059;-76
2023/03/01 00:03:55;;;;;;;22.75;14.90;;;;;;;-0.04;100.00;103300.38;4893132;29;20060;-76
2023/03/01 00:06:24;;;;;;;23.25;15.45;;;;;;;-0.07;100.00;103301.03;4878425;29;20052;-78
2023/03/01 00:08:52;;;;;;;22.83;15.05;;;;;;;-0.08;100.00;103303.47;4889603;29;20055;-78
2023/03/01 00:11:22;;;;;;;22.58;15.20;;;;;;;-0.10;100.00;103305.03;4846025;29;20053;-77
2023/03/01 00:13:52;;;;;;;26.80;15.70;;;;;;;-0.11;100.00;103308.41;4884387;29;20060;-77
2023/03/01 00:16:25;;;;;;;21.50;14.70;;;;;;;-0.13;100.00;103302.16;4892817;29;20041;-77
2023/03/01 00:18:55;;;;;;;27.55;16.05;;;;;;;-0.15;100.00;103298.53;4890840;29;20048;-77
2023/03/01 00:21:23;;;;;;;22.17;14.82;;;;;;;-0.16;100.00;103288.97;4879627;29;20512;-76
2023/03/01 00:23:51;;;;;;;20.85;15.38;;;;;;;-0.17;100.00;103292.31;4886930;29;20527;-76
2023/03/01 00:26:19;;;;;;;21.85;15.48;;;;;;;-0.21;100.00;103292.06;4889225;29;20056;-76
2023/03/01 00:28:47;;;;;;;21.63;15.38;;;;;;;-0.22;100.00;103299.72;4857042;29;20052;-76
2023/03/01 00:31:17;;;;;;;21.73;14.73;;;;;;;-0.23;100.00;103293.63;4905872;29;20048;-76
2023/03/01 00:33:45;;;;;;;25.02;13.95;;;;;;;-0.25;100.00;103294.25;4888091;29;20052;-76
2023/03/01 00:36:14;;;;;;;25.65;15.85;;;;;;;-0.28;100.00;103294.00;4879078;29;20044;-76
2023/03/01 00:38:44;;;;;;;25.77;15.60;;;;;;;-0.29;100.00;103295.66;4897801;29;20048;-76
2023/03/01 00:41:15;;;;;;;20.65;15.30;;;;;;;-0.33;100.00;103292.69;4890764;29;20052;-76
2023/03/01 00:43:42;;;;;;;21.00;14.07;;;;;;;-0.34;100.00;103294.38;4844523;29;20056;-76
2023/03/01 00:46:15;;;;;;;26.38;16.27;;;;;;;-0.36;100.00;103297.59;4890128;29;20501;-76
2023/03/01 00:48:44;;;;;;;25.05;16.75;;;;;;;-0.39;100.00;103295.66;4886345;29;20053;-76
2023/03/01 00:51:20;;;;;;;23.85;17.02;;;;;;;-0.40;100.00;103301.59;4889169;29;20079;-76
2023/03/01 00:53:51;;;;;;;25.17;16.77;;;;;;;-0.42;100.00;103300.56;4880282;29;20053;-76
2023/03/01 00:56:19;;;;;;;;;;;;;;;-0.44;100.00;103297.81;4889692;29;20044;-77
2023/03/01 00:58:46;;;;;;;21.33;14.55;;;;;;;-0.47;100.00;103292.41;4846301;29;19930;-77
2023/03/01 01:01:19;;;;;;;24.15;16.65;;;;;;;-0.49;100.00;103288.78;4889670;29;20083;-77
2023/03/01 01:03:56;;;;;;;22.33;15.27;;;;;;;-0.51;100.00;103286.78;4887475;29;20060;-76
2023/03/01 01:06:26;;;;;;;22.58;15.07;;;;;;;-0.52;100.00;103283.31;4888831;29;20045;-76
2023/03/01 01:08:55;;;;;;;25.33;16.38;;;;;;;-0.53;100.00;103290.94;4881648;29;20064;-76
2023/03/01 01:11:25;;;;;;;24.83;16.25;;;;;;;-0.55;100.00;103290.81;4893641;29;20048;-76
2023/03/01 01:13:54;;;;;;;23.92;15.40;;;;;;;-0.57;100.00;103288.88;4850051;29;20045;-77
2023/03/01 01:16:23;;;;;;;24.63;15.82;;;;;;;-0.60;100.00;103281.75;4892024;29;20527;-76
2023/03/01 01:18:51;;;;;;;22.17;14.45;;;;;;;-0.60;100.00;103287.81;4891380;29;20079;-76
2023/03/01 01:21:22;;;;;;;19.95;14.63;;;;;;;-0.62;100.00;103266.06;4892608;29;20138;-76
2023/03/01 01:23:51;;;;;;;19.48;14.60;;;;;;;-0.64;100.00;103261.53;4880391;29;20083;-76
2023/03/01 01:26:22;;;;;;;20.80;14.50;;;;;;;-0.66;100.00;103260.47;4894476;29;20052;-76
2023/03/01 01:28:51;;;;;;;22.30;14.70;;;;;;;-0.68;100.00;103260.34;4847088;29;20043;-76
2023/03/01 01:31:18;;;;;;;25.30;16.55;;;;;;;-0.70;100.00;103254.13;4893736;29;20076;-76
2023/03/01 01:33:46;;;;;;;22.85;15.05;;;;;;;-0.71;100.00;103259.19;4890467;29;20071;-76
2023/03/01 01:36:13;;;;;;;20.58;14.15;;;;;;;-0.73;100.00;103263.31;4892375;29;20055;-76
2023/03/01 01:38:42;;;;;;;21.75;14.32;;;;;;;-0.74;100.00;103253.72;4880992;29;20130;-76
2023/03/01 01:41:13;;;;;;;19.50;14.88;;;;;;;-0.78;100.00;103257.72;4892397;29;20057;-76
2023/03/01 01:44:06;;;;;;;20.65;14.13;;;;;;;-0.82;100.00;103251.34;4856748;29;20055;-76
2023/03/01 01:46:44;;;;;;;21.48;14.60;;;;;;;-0.81;100.00;103249.69;4886839;29;20064;-76
2023/03/01 01:49:31;;;;;;;24.30;14.90;;;;;;;-0.83;100.00;103249.56;4892434;29;20060;-76
2023/03/01 01:52:25;;;;;;;21.40;13.98;;;;;;;-0.85;100.00;103235.56;4879664;29;20049;-76
2023/03/01 01:55:08;;;;;;;22.33;13.65;;;;;;;-0.86;100.00;103238.91;4883344;29;20056;-77
2023/03/01 01:57:44;;;;;;;22.35;13.77;;;;;;;-0.89;100.00;103238.69;4857069;29;20052;-76
2023/03/01 02:00:18;;;;;;;21.48;13.88;;;;;;;-0.89;100.00;103232.56;4864502;29;20064;-76
2023/03/01 02:02:51;;;;;;;18.83;13.65;;;;;;;-0.91;100.00;103240.19;4888542;29;20716;-76
2023/03/01 02:05:19;;;;;;;17.67;12.95;;;;;;;-0.91;100.00;103234.13;4893187;29;20056;-76
2023/03/01 02:07:48;;;;;;;20.98;13.52;;;;;;;-0.93;100.00;103231.38;4889441;29;20036;-76
2023/03/01 02:10:21;;;;;;;20.73;14.32;;;;;;;-0.94;100.00;103226.09;4852847;29;20063;-76
2023/03/01 02:12:48;;;;;;;25.10;16.00;;;;;;;-0.95;100.00;103222.59;4848171;29;20056;-76
2023/03/01 02:15:15;;;;;;;25.83;15.85;;;;;;;-0.98;100.00;103225.81;4892493;29;20520;-77
2023/03/01 02:17:43;;;;;;;22.48;15.32;;;;;;;-0.99;100.00;103221.41;4873756;29;20056;-76
2023/03/01 02:20:29;;;;;;;24.20;16.00;;;;;;;-1.00;100.00;103222.19;4893047;29;20056;-76
2023/03/01 02:22:58;;;;;;;26.60;15.73;;;;;;;-0.99;100.00;103221.41;4891445;29;20494;-76
2023/03/01 02:25:59;;;;;;;26.90;16.20;;;;;;;-1.02;100.00;103215.97;4881495;29;20487;-76
2023/03/01 02:28:31;;;;;;;;;;;;;;;-1.03;100.00;103208.06;4875003;29;20045;-76
2023/03/01 02:33:45;;;;;;;28.75;16.45;;;;;;;-1.07;100.00;103200.81;4886171;29;20493;-76
2023/03/01 02:36:18;;;;;;;28.73;18.17;;;;;;;-1.08;100.00;103196.38;4892669;29;20084;-78
2023/03/01 02:38:48;;;;;;;31.17;18.92;;;;;;;-1.10;100.00;103188.50;4888408;29;20040;-77
2023/03/01 02:41:19;;;;;;;29.05;17.23;;;;;;;-1.11;100.00;103197.03;4853216;29;20060;-77
2023/03/01 02:43:46;;;;;;;29.98;19.08;;;;;;;-1.12;100.00;103195.22;4900869;29;20057;-77
2023/03/01 02:46:18;;;;;;;31.08;18.95;;;;;;;-1.12;100.00;103204.66;4850118;29;20063;-77
2023/03/01 02:48:57;;;;;;;31.98;19.52;;;;;;;-1.15;100.00;103183.69;4890608;29;20053;-77
2023/03/01 02:51:43;;;;;;;35.03;21.10;;;;;;;-1.16;100.00;103185.38;4891035;29;20056;-77
2023/03/01 02:54:23;;;;;;;28.15;18.67;;;;;;;-1.19;100.00;103177.34;4892714;29;20056;-77
2023/03/01 02:56:51;;;;;;;34.92;20.30;;;;;;;-1.19;100.00;103173.09;4881187;29;20496;-78
2023/03/01 02:59:24;;;;;;;30.48;19.20;;;;;;;-1.20;100.00;103179.00;4891739;29;20060;-76
2023/03/01 03:01:52;;;;;;;34.22;18.70;;;;;;;-1.24;100.00;103174.34;4847968;29;20068;-76
2023/03/01 03:04:20;;;;;;;31.55;19.55;;;;;;;-1.28;100.00;103168.78;4888288;29;20048;-78
2023/03/01 03:06:51;;;;;;;23.20;15.18;;;;;;;-1.30;100.00;103173.81;4889118;29;20064;-77
2023/03/01 03:09:18;;;;;;;30.48;18.45;;;;;;;-1.30;100.00;103173.81;4887056;29;20053;-77
2023/03/01 03:11:46;;;;;;;32.40;20.17;;;;;;;-1.30;100.00;103176.41;4881114;29;20045;-76
2023/03/01 03:14:16;;;;;;;30.38;19.33;;;;;;;-1.32;100.00;103169.25;4896270;29;20059;-76
2023/03/01 03:16:48;;;;;;;32.58;19.25;;;;;;;-1.32;100.00;103177.00;4847177;29;20053;-77
2023/03/01 03:19:19;;;;;;;28.50;18.77;;;;;;;-1.33;100.00;103175.22;4892071;29;20408;-77
2023/03/01 03:21:46;;;;;;;25.27;16.95;;;;;;;-1.32;100.00;103182.19;4887656;29;20048;-76
2023/03/01 03:24:14;;;;;;;26.92;17.63;;;;;;;-1.34;100.00;103179.50;4891846;29;20056;-77
2023/03/01 03:26:41;;;;;;;26.80;17.05;;;;;;;-1.38;100.00;103173.13;4877593;29;20059;-76
2023/03/01 03:29:08;;;;;;;28.08;17.23;;;;;;;-1.39;100.00;103186.81;4891721;29;20048;-76
2023/03/01 03:31:36;;;;;;;28.33;17.15;;;;;;;-1.37;100.00;103198.22;4872557;29;20637;-76
2023/03/01 03:34:03;;;;;;;28.60;17.10;;;;;;;-1.37;100.00;103199.91;4847883;29;20420;-78
2023/03/01 03:36:31;;;;;;;28.83;17.85;;;;;;;-1.39;100.00;103196.28;4876222;29;20518;-76
2023/03/01 03:38:59;;;;;;;29.27;16.85;;;;;;;-1.39;100.00;103188.50;4890050;29;20060;-77
2023/03/01 03:41:26;;;;;;;29.05;17.65;;;;;;;-1.39;100.00;103183.34;4879167;29;20041;-76
2023/03/01 03:43:53;;;;;;;28.08;16.67;;;;;;;-1.42;100.00;103181.41;4889524;29;20048;-76
2023/03/01 03:46:20;;;;;;;29.33;17.10;;;;;;;-1.41;100.00;103171.94;4891403;29;20053;-76
2023/03/01 03:48:49;;;;;;;28.40;16.70;;;;;;;-1.45;100.00;103175.03;4844950;29;20048;-76
2023/03/01 03:51:18;;;;;;;25.77;16.85;;;;;;;-1.47;100.00;103177.47;4891510;29;20405;-76
2023/03/01 03:53:45;;;;;;;24.92;16.42;;;;;;;-1.49;100.00;103178.09;4889106;29;20059;-76
2023/03/01 03:56:13;;;;;;;22.20;16.08;;;;;;;-1.52;100.00;103183.00;4863249;29;20061;-77
2023/03/01 03:58:41;;;;;;;25.85;16.48;;;;;;;-1.53;100.00;103178.59;4862302;29;20048;-78
2023/03/01 04:01:08;;;;;;;26.85;17.42;;;;;;;-1.55;100.00;103177.56;4892351;29;20048;-77
2023/03/01 04:03:36;;;;;;;26.38;17.15;;;;;;;-1.60;100.00;103178.06;4874781;29;20523;-76
2023/03/01 04:06:04;;;;;;;23.65;16.02;;;;;;;-1.60;100.00;103182.34;4845353;29;20048;-77
2023/03/01 04:08:31;;;;;;;29.15;17.25;;;;;;;-1.62;100.00;103184.78;4887861;29;20041;-76
2023/03/01 04:11:47;;;;;;;26.85;17.73;;;;;;;-1.63;100.00;103188.13;4890959;29;20052;-77
2023/03/01 04:13:52;;;;;;;27.42;17.10;;;;;;;-1.64;100.00;103194.06;4857989;29;20049;-77
2023/03/01 04:16:19;;;;;;;21.42;13.05;;;;;;;-1.67;100.00;103190.28;4891538;29;20048;-76
2023/03/01 04:18:47;;;;;;;26.67;16.65;;;;;;;-1.68;100.00;103186.81;4889205;29;20048;-76
2023/03/01 04:21:15;;;;;;;26.13;16.25;;;;;;;-1.67;100.00;103183.44;4804580;29;20076;-77
2023/03/01 04:23:43;;;;;;;33.60;16.05;;;;;;;-1.65;100.00;103191.34;4871468;29;20056;-76
2023/03/01 04:26:10;;;;;;;24.52;16.35;;;;;;;-1.67;100.00;103183.44;4890343;29;20415;-77
2023/03/01 04:28:40;;;;;;;23.05;14.82;;;;;;;-1.68;100.00;103171.31;4877506;29;20040;-77
2023/03/01 04:31:13;;;;;;;22.55;14.60;;;;;;;-1.70;100.00;103172.84;4888947;29;20053;-76
2023/03/01 04:34:01;;;;;;;21.02;15.40;;;;;;;-1.71;100.00;103170.13;4890064;29;20706;-76
2023/03/01 04:36:29;;;;;;;22.35;14.55;;;;;;;-1.73;100.00;103169.06;4847638;29;20049;-76
2023/03/01 04:38:57;;;;;;;20.70;14.52;;;;;;;-1.74;100.00;103175.88;4888540;29;20056;-77
2023/03/01 04:41:25;;;;;;;21.33;14.55;;;;;;;-1.73;100.00;103172.56;4890516;29;20056;-76
2023/03/01 04:43:52;;;;;;;21.67;14.27;;;;;;;-1.75;100.00;103158.59;4863553;29;20056;-76
2023/03/01 04:46:21;;;;;;;19.17;13.85;;;;;;;-1.75;100.00;103168.94;4892746;29;20134;-76
2023/03/01 04:48:49;;;;;;;17.88;13.10;;;;;;;-1.77;100.00;103162.72;4890035;29;20048;-76
2023/03/01 04:51:18;;;;;;;16.50;11.80;;;;;;;-1.82;100.00;103162.28;4841522;29;20048;-77
2023/03/01 04:53:45;;;;;;;15.35;10.95;;;;;;;-1.82;100.00;103146.78;4890450;29;20052;-77
2023/03/01 04:56:14;;;;;;;17.10;11.50;;;;;;;-1.81;100.00;103158.03;4892908;29;20052;-78
2023/03/01 04:58:42;;;;;;;18.90;12.88;;;;;;;-1.83;100.00;103157.91;4889694;29;20504;-77
2023/03/01 05:01:14;;;;;;;20.00;12.80;;;;;;;-1.85;100.00;103150.75;4872566;29;20052;-76
2023/03/01 05:03:48;;;;;;;21.85;13.15;;;;;;;-1.90;100.00;103152.94;4873067;29;20060;-78
2023/03/01 05:06:19;;;;;;;21.55;13.52;;;;;;;-1.93;100.00;103142.31;4856644;29;23102;-77
2023/03/01 05:08:46;;;;;;;23.38;15.10;;;;;;;-1.97;100.00;103135.06;4861958;29;20041;-78
2023/03/01 05:11:14;;;;;;;26.10;16.33;;;;;;;-1.96;100.00;103139.47;4890690;29;20053;-77
2023/03/01 05:13:41;;;;;;;25.35;16.00;;;;;;;-1.98;100.00;103135.84;4891774;29;20587;-77
2023/03/01 05:16:12;;;;;;;28.00;15.27;;;;;;;-2.01;100.00;103131.28;4881648;29;20060;-77
2023/03/01 05:18:40;;;;;;;24.13;15.27;;;;;;;-2.01;100.00;103120.94;4894181;29;20041;-77
2023/03/01 05:21:11;;;;;;;29.13;16.75;;;;;;;-2.01;100.00;103125.22;4891564;29;20079;-77
2023/03/01 05:23:38;;;;;;;26.33;16.50;;;;;;;-2.02;100.00;103129.47;4837239;29;20055;-76
2023/03/01 05:26:07;;;;;;;29.98;17.65;;;;;;;-2.02;100.00;103113.97;4888592;29;20052;-75
2023/03/01 05:28:42;;;;;;;30.88;17.70;;;;;;;-2.01;100.00;103113.19;4891403;29;20048;-77
2023/03/01 05:31:10;;;;;;;28.17;17.20;;;;;;;-2.01;100.00;103120.94;4878973;29;20036;-75
2023/03/01 05:33:39;;;;;;;42.97;19.45;;;;;;;-2.00;100.00;103114.13;4891909;29;20438;-75
2023/03/01 05:36:09;;;;;;;72.30;20.75;;;;;;;-2.03;100.00;103106.97;4888081;29;20063;-76
2023/03/01 05:38:36;;;;;;;31.05;15.55;;;;;;;-2.05;100.00;103105.03;4854993;29;20053;-76
2023/03/01 05:41:04;;;;;;;51.40;21.20;;;;;;;-2.09;100.00;103110.69;4876688;29;20067;-76
2023/03/01 05:43:33;;;;;;;36.75;18.67;;;;;;;-2.10;100.00;103107.19;4893752;29;20117;-76
2023/03/01 05:46:01;;;;;;;34.78;19.33;;;;;;;-2.12;100.00;103095.81;4858109;29;20048;-76
2023/03/01 05:48:28;;;;;;;30.58;18.02;;;;;;;-2.11;100.00;103095.06;4880861;29;20060;-77
2023/03/01 05:50:59;;;;;;;33.53;19.13;;;;;;;-2.11;100.00;103102.81;4878764;29;20067;-77
2023/03/01 05:53:27;;;;;;;34.33;19.83;;;;;;;-2.13;100.00;103101.75;4892829;29;20053;-77
2023/03/01 05:55:54;;;;;;;31.20;17.48;;;;;;;-2.13;100.00;103103.44;4833200;29;20048;-77
2023/03/01 05:58:22;;;;;;;31.20;17.42;;;;;;;-2.13;100.00;103106.03;4886450;29;20052;-77
2023/03/01 06:00:49;;;;;;;28.15;17.30;;;;;;;-2.17;100.00;103099.69;4878035;29;20057;-77
2023/03/01 06:03:19;;;;;;;24.98;16.30;;;;;;;-2.20;100.00;103097.69;4844763;29;20064;-77
2023/03/01 06:05:46;;;;;;;24.05;16.42;;;;;;;-2.24;100.00;103090.44;4871128;29;20060;-77
2023/03/01 06:08:14;;;;;;;28.88;17.55;;;;;;;-2.25;100.00;103098.97;4885930;29;20539;-77
2023/03/01 06:10:41;;;;;;;29.63;17.60;;;;;;;-2.26;100.00;103097.16;4846831;29;20051;-77
2023/03/01 06:13:09;;;;;;;31.38;18.42;;;;;;;-2.26;100.00;103097.16;4876150;29;20049;-77
2023/03/01 06:15:36;;;;;;;32.20;17.50;;;;;;;-2.28;100.00;103111.59;4888674;29;20730;-77
2023/03/01 06:18:05;;;;;;;33.42;18.98;;;;;;;-2.27;100.00;103107.34;4860537;29;20425;-76
2023/03/01 06:20:32;;;;;;;30.40;17.27;;;;;;;-2.27;100.00;103112.50;4887205;29;20459;-76
2023/03/01 06:23:00;;;;;;;29.00;17.48;;;;;;;-2.28;100.00;103121.94;4891444;29;20063;-77
2023/03/01 06:25:28;;;;;;;28.73;17.70;;;;;;;-2.29;100.00;103116.63;4842398;29;25465;-76
2023/03/01 06:27:56;;;;;;;29.88;16.77;;;;;;;-2.29;100.00;103130.44;4878958;29;20043;-77
2023/03/01 06:30:25;;;;;;;32.53;18.80;;;;;;;-2.28;100.00;103121.94;4885986;29;20526;-77
2023/03/01 06:33:00;;;;;;;28.08;16.73;;;;;;;-2.26;100.00;103130.72;4877197;29;20064;-76
2023/03/01 06:35:30;;;;;;;30.80;17.13;;;;;;;-2.25;100.00;103129.97;4884917;29;20056;-77
2023/03/01 06:38:00;;;;;;;26.98;17.35;;;;;;;-2.25;100.00;103129.03;4873498;29;20064;-76
2023/03/01 06:40:28;;;;;;;32.75;18.83;;;;;;;-2.25;100.00;103136.78;4832045;29;20865;-76
2023/03/01 06:42:55;;;;;;;25.25;16.83;;;;;;;-2.22;100.00;103143.16;4868354;29;20060;-78
2023/03/01 06:45:23;;;;;;;24.77;15.80;;;;;;;-2.20;100.00;103145.88;4862065;29;20045;-77
2023/03/01 06:47:50;;;;;;;29.35;16.80;;;;;;;-2.18;100.00;103144.34;4875631;29;20044;-76
2023/03/01 06:50:18;;;;;;;26.23;15.90;;;;;;;-2.15;100.00;103142.06;4870030;29;20045;-76
2023/03/01 06:52:46;;;;;;;27.27;17.52;;;;;;;-2.14;100.00;103141.25;4886126;29;20071;-77
2023/03/01 06:55:13;;;;;;;27.77;17.17;;;;;;;-2.09;100.00;103139.13;4887163;29;20037;-76
2023/03/01 06:57:40;;;;;;;26.13;16.92;;;;;;;-2.07;100.00;103133.31;4833753;29;20508;-77
2023/03/01 07:00:08;;;;;;;32.33;16.42;;;;;;;-2.03;100.00;103138.00;4890906;29;20415;-77
2023/03/01 07:02:36;;;;;;;27.83;15.88;;;;;;;-1.99;100.00;103136.59;4879380;29;20189;-76
2023/03/01 07:05:04;;;;;;;28.77;16.60;;;;;;;-1.94;100.00;103142.19;4874499;29;20056;-76
2023/03/01 07:07:32;;;;;;;26.48;16.67;;;;;;;-1.91;100.00;103145.03;4849942;29;20064;-77
2023/03/01 07:09:59;;;;;;;28.83;17.23;;;;;;;-1.84;100.00;103142.25;4862829;29;20052;-78
2023/03/01 07:12:26;;;;;;;28.10;17.80;;;;;;;-1.74;100.00;103141.38;4829412;29;20068;-77
2023/03/01 07:14:54;;;;;;;27.77;16.98;;;;;;;-1.69;100.00;103132.38;4833526;29;20045;-77
2023/03/01 07:17:21;;;;;;;31.50;18.13;;;;;;;-1.64;100.00;103134.59;4894492;29;20535;-78
2023/03/01 07:19:51;;;;;;;25.65;17.13;;;;;;;-1.57;100.00;103133.47;4854322;29;20055;-78
2023/03/01 07:22:19;;;;;;;26.92;16.70;;;;;;;-1.52;100.00;103133.88;4899414;29;20055;-78
2023/03/01 07:24:46;;;;;;;28.25;16.90;;;;;;;-1.47;100.00;103133.53;4889685;29;20045;-76
2023/03/01 07:27:14;;;;;;;25.77;17.13;;;;;;;-1.41;100.00;103127.97;4868502;29;20052;-77
2023/03/01 07:29:41;;;;;;;30.30;17.42;;;;;;;-1.35;100.00;103123.34;4836808;29;20488;-77
2023/03/01 07:32:09;;;;;;;30.85;19.10;;;;;;;-1.28;100.00;103133.47;4870644;29;20068;-77
2023/03/01 07:34:37;;;;;;;29.40;18.25;;;;;;;-1.21;100.00;103132.31;4859986;29;20048;-76
2023/03/01 07:37:04;;;;;;;31.48;19.52;;;;;;;-1.12;100.00;103134.81;4886741;29;20059;-76
2023/03/01 07:39:32;;;;;;;33.42;19.45;;;;;;;-1.07;100.00;103134.44;4888829;29;20048;-76
2023/03/01 07:41:59;;;;;;;31.45;17.77;;;;;;;-0.99;100.00;103133.41;4889226;29;20056;-76
2023/03/01 07:44:28;;;;;;;30.42;19.35;;;;;;;-0.90;100.00;103132.41;4846119;29;20757;-76
2023/03/01 07:46:56;;;;;;;33.35;20.25;;;;;;;-0.83;100.00;103135.66;4884810;29;20076;-77
2023/03/01 07:49:23;;;;;;;36.25;21.38;;;;;;;-0.74;100.00;103122.56;4878788;29;20406;-77
2023/03/01 07:51:50;;;;;;;31.50;21.17;;;;;;;-0.65;100.00;103131.13;4889692;29;20052;-77
2023/03/01 07:54:18;;;;;;;34.67;20.25;;;;;;;-0.55;100.00;103130.22;4861397;29;20064;-78
2023/03/01 07:56:45;;;;;;;32.88;20.38;;;;;;;-0.46;100.00;103128.41;4895496;29;20059;-78
2023/03/01 07:59:13;;;;;;;34.88;22.90;;;;;;;-0.36;100.00;103130.09;4840550;29;20530;-78
2023/03/01 08:01:40;;;;;;;38.28;23.80;;;;;;;-0.28;100.00;103131.66;4865685;29;20427;-77
2023/03/01 08:04:08;;;;;;;37.88;23.55;;;;;;;-0.17;100.00;103129.97;4887613;29;20052;-76
2023/03/01 08:06:37;;;;;;;42.10;24.75;;;;;;;-0.07;100.00;103134.22;4876280;29;20516;-78
2023/03/01 08:09:04;;;;;;;33.42;22.83;;;;;;;0.07;100.00;103132.78;4885259;29;20436;-77
2023/03/01 08:11:32;;;;;;;35.92;24.52;;;;;;;0.19;100.00;103123.41;4887689;29;20041;-76
2023/03/01 08:14:00;;;;;;;37.60;25.60;;;;;;;0.34;100.00;103128.91;4825278;29;20537;-77
2023/03/01 08:16:28;;;;;;;36.15;23.35;;;;;;;0.51;100.00;103117.31;4853343;29;20041;-78
2023/03/01 08:18:59;;;;;;;37.50;25.73;;;;;;;0.70;100.00;103114.50;4873209;29;20044;-76
2023/03/01 08:21:26;;;;;;;;;;;;;;;0.90;100.00;103114.41;4859425;29;20040;-76
2023/03/01 08:23:53;;;;;;;35.20;23.63;;;;;;;1.14;100.00;103123.22;4869303;29;19939;-78
2023/03/01 08:26:21;;;;;;;43.88;23.25;;;;;;;1.47;100.00;103115.31;4877804;29;20063;-77
2023/03/01 08:28:50;;;;;;;46.90;26.80;;;;;;;1.87;100.00;103116.66;4890453;29;20523;-77
2023/03/01 08:31:19;;;;;;;39.38;26.02;;;;;;;2.31;100.00;103111.22;4846243;29;20053;-78
2023/03/01 08:33:50;;;;;;;41.15;23.50;;;;;;;2.76;100.00;103111.84;4889433;29;20044;-77
2023/03/01 08:36:18;;;;;;;36.92;24.33;;;;;;;3.19;100.00;103116.53;4872285;29;20045;-77
2023/03/01 08:38:45;;;;;;;31.58;21.08;;;;;;;3.57;100.00;103105.25;4887204;29;20048;-77
2023/03/01 08:41:13;;;;;;;34.75;23.48;;;;;;;3.90;100.00;103106.63;4885201;29;20083;-77
2023/03/01 08:43:40;;;;;;;31.85;22.67;;;;;;;4.22;100.00;103095.69;4887347;29;20507;-77
2023/03/01 08:46:08;;;;;;;33.97;22.52;;;;;;;4.48;100.00;103104.31;4847173;29;20060;-77
2023/03/01 08:48:35;;;;;;;31.88;21.95;;;;;;;4.69;100.00;103105.66;4884739;29;20057;-77
2023/03/01 08:51:10;;;;;;;29.08;20.60;;;;;;;4.95;100.00;103106.38;4868733;29;20064;-77
2023/03/01 08:53:40;;;;;;;30.08;21.52;;;;;;;5.16;100.00;103100.69;4872644;29;20048;-77
2023/03/01 08:56:09;;;;;;;29.48;21.23;;;;;;;5.32;100.00;103103.44;4872541;29;21365;-77
2023/03/01 08:58:37;;;;;;;31.88;21.75;;;;;;;5.47;100.00;103100.84;4885557;29;20049;-77
2023/03/01 09:01:09;;;;;;;29.20;21.33;;;;;;;5.57;100.00;103097.06;4887982;29;20045;-77
2023/03/01 09:03:36;;;;;;;29.45;20.85;;;;;;;5.64;100.00;103096.63;4824579;29;20060;-77
2023/03/01 09:06:07;;;;;;;27.13;21.25;;;;;;;5.74;100.00;103090.22;4862831;29;20409;-77
2023/03/01 09:08:36;;;;;;;27.13;20.77;;;;;;;5.80;100.00;103080.13;4847323;29;20504;-78
2023/03/01 09:11:06;;;;;;;26.27;19.70;;;;;;;5.87;100.00;103084.91;4888274;29;20041;-77
2023/03/01 09:13:34;;;;;;;28.85;20.58;;;;;;;5.89;100.00;103075.41;4891004;29;20050;-78
2023/03/01 09:16:03;;;;;;;24.02;18.88;;;;;;;5.94;100.00;103076.59;4888414;29;20055;-78
2023/03/01 09:18:31;;;;;;;30.30;20.08;;;;;;;5.96;100.00;103076.72;4848954;29;20165;-78
2023/03/01 09:21:06;;;;;;;29.08;19.38;;;;;;;5.98;100.00;103078.59;4889228;29;20059;-77
2023/03/01 09:23:36;;;;;;;27.83;20.52;;;;;;;5.97;100.00;103084.66;4870575;29;20048;-77
2023/03/01 09:26:03;;;;;;;27.35;21.20;;;;;;;6.01;100.00;103080.47;4850771;29;20516;-77
2023/03/01 09:28:31;;;;;;;28.50;21.20;;;;;;;6.01;100.00;103083.09;4857598;29;20512;-77
2023/03/01 09:30:59;;;;;;;26.67;19.77;;;;;;;5.96;100.00;103080.22;4898368;29;20048;-76
2023/03/01 09:33:29;;;;;;;31.05;20.58;;;;;;;5.90;100.00;103085.09;4844366;29;20044;-77
2023/03/01 09:35:58;;;;;;;30.92;21.40;;;;;;;5.81;100.00;103092.41;4898404;29;20051;-77
2023/03/01 09:38:26;;;;;;;31.38;20.95;;;;;;;5.65;100.00;103088.88;4878615;29;20059;-77
2023/03/01 09:40:54;;;;;;;29.45;21.40;;;;;;;5.52;100.00;103088.03;4860149;29;20393;-77
2023/03/01 09:43:57;;;;;;;27.58;20.83;;;;;;;5.42;100.00;103095.31;4869178;29;20064;-76
2023/03/01 09:46:26;;;;;;;29.38;21.63;;;;;;;5.36;100.00;103088.84;4890115;29;20063;-77
2023/03/01 09:49:04;;;;;;;31.63;21.05;;;;;;;5.28;100.00;103099.72;4843374;29;20091;-76
2023/03/01 09:51:34;;;;;;;28.63;20.45;;;;;;;5.22;100.00;103098.47;4871336;29;20045;-76
2023/03/01 09:54:04;;;;;;;28.70;20.25;;;;;;;5.19;100.00;103104.41;4880806;29;20045;-76
2023/03/01 09:56:39;;;;;;;27.35;20.77;;;;;;;5.17;100.00;103100.78;4853949;29;20091;-76
2023/03/01 09:59:18;;;;;;;29.40;21.27;;;;;;;5.11;100.00;103094.31;4893730;29;20064;-76
2023/03/01 10:02:10;;;;;;;25.27;18.52;;;;;;;5.03;100.00;103094.72;4872169;29;20060;-76
2023/03/01 10:04:59;;;;;;;28.92;17.63;;;;;;;4.96;100.00;103094.25;4830902;29;20053;-76
2023/03/01 10:07:30;;;;;;;26.65;18.15;;;;;;;4.93;100.00;103099.28;4872949;29;20057;-77
2023/03/01 10:09:58;;;;;;;22.52;16.60;;;;;;;4.89;100.00;103093.84;4865370;29;20053;-78
2023/03/01 10:12:34;;;;;;;24.17;17.92;;;;;;;4.83;100.00;103101.31;4863989;29;20040;-76
2023/03/01 10:15:16;;;;;;;24.05;18.83;;;;;;;4.83;100.00;103097.81;4878129;29;20060;-77
2023/03/01 10:17:53;;;;;;;25.67;20.13;;;;;;;4.82;100.00;103098.59;4886393;29;20060;-77
2023/03/01 10:20:26;;;;;;;27.33;19.23;;;;;;;4.83;100.00;103098.69;4839958;29;21775;-76
2023/03/01 10:22:55;;;;;;;23.52;17.77;;;;;;;4.85;100.00;103101.41;4887358;29;20052;-75
2023/03/01 10:25:37;;;;;;;30.63;19.83;;;;;;;4.91;100.00;103093.94;4865370;29;20057;-78
2023/03/01 10:28:37;;;;;;;27.67;19.67;;;;;;;4.94;100.00;103088.94;4870950;29;20051;-76
2023/03/01 10:31:11;;;;;;;28.77;17.75;;;;;;;4.95;100.00;103095.94;4885529;29;20048;-77
2023/03/01 10:33:40;;;;;;;30.20;18.83;;;;;;;4.97;100.00;103096.97;4876157;29;20048;-78
2023/03/01 10:36:08;;;;;;;26.92;18.83;;;;;;;4.94;100.00;103088.94;4832098;29;20048;-77
2023/03/01 10:38:54;;;;;;;28.33;18.33;;;;;;;4.94;100.00;103078.47;4878142;29;20057;-78
2023/03/01 10:41:23;;;;;;;25.90;17.55;;;;;;;4.97;100.00;103076.06;4868226;29;20520;-77
2023/03/01 10:43:59;;;;;;;23.88;16.33;;;;;;;4.93;100.00;103079.25;4871418;29;20412;-77
2023/03/01 10:46:31;;;;;;;25.05;18.30;;;;;;;4.91;100.00;103072.16;4872889;29;20064;-77
2023/03/01 10:49:18;;;;;;;26.15;19.27;;;;;;;4.91;100.00;103074.75;4897221;29;20059;-77
2023/03/01 10:51:50;;;;;;;26.38;17.35;;;;;;;4.97;100.00;103068.22;4868618;29;20059;-77
2023/03/01 10:54:29;;;;;;;27.20;16.95;;;;;;;5.01;100.00;103064.97;4877825;29;20579;-77
2023/03/01 10:56:59;;;;;;;20.60;16.30;;;;;;;5.03;100.00;103065.09;4874514;29;20492;-76
2023/03/01 10:59:32;;;;;;;18.73;13.93;;;;;;;5.10;100.00;103062.00;4877669;29;20052;-77
2023/03/01 11:02:27;;;;;;;15.63;11.73;;;;;;;5.20;100.00;103060.88;4891561;29;20056;-78
2023/03/01 11:04:59;;;;;;;21.08;14.38;;;;;;;5.21;100.00;103060.94;4892461;29;20432;-77
2023/03/01 11:07:28;;;;;;;17.20;12.80;;;;;;;5.24;100.00;103060.25;4842265;29;20599;-78
2023/03/01 11:09:55;;;;;;;19.00;14.65;;;;;;;5.29;100.00;103064.03;4882436;29;20052;-77
2023/03/01 11:12:24;;;;;;;20.33;14.23;;;;;;;5.39;100.00;103066.41;4867541;29;20051;-77
2023/03/01 11:14:54;;;;;;;21.52;15.07;;;;;;;5.40;100.00;103062.97;4877138;29;20511;-76
2023/03/01 11:17:29;;;;;;;;;;;;;;;5.38;100.00;103067.19;4883286;29;20056;-75
2023/03/01 11:20:26;;;;;;;18.50;13.60;;;;;;;5.36;100.00;103067.94;4863122;29;19939;-77
2023/03/01 11:23:06;;;;;;;20.77;14.35;;;;;;;5.39;100.00;103061.16;4882913;29;20488;-77